sensor_id;sensor_type;location;lat;lon;timestamp;pressure;altitude;pressure_sealevel;temperature;humidity
26087;BME280;13851;43.434;28.338;2023-05-03T00:02:02;100599.38;;;12.60;100.00
26087;BME280;13851;43.434;28.338;2023-05-03T00:04:27;100713.16;;;12.98;100.00
26087;BME280;13851;43.434;28.338;2023-05-03T00:06:53;100592.69;;;12.55;100.00
26087;BME280;13851;43.434;28.338;2023-05-03T00:09:19;100680.81;;;13.09;100.00
26087;BME280;13851;43.434;28.338;2023-05-03T00:11:45;100611.88;;;12.63;100.00
26087;BME280;13851;43.434;28.338;2023-05-03T00:14:10;100681.22;;;12.89;100.00
26087;BME280;13851;43.434;28.338;2023-05-03T00:16:36;100681.94;;;12.83;100.00
26087;BME280;13851;43.434;28.338;2023-05-03T00:19:02;100702.75;;;12.78;100.00
26087;BME280;13851;43.434;28.338;2023-05-03T00:21:27;100629.81;;;12.51;100.00
26087;BME280;13851;43.434;28.338;2023-05-03T00:23:54;100675.25;;;12.78;100.00
26087;BME280;13851;43.434;28.338;2023-05-03T00:26:19;100651.06;;;12.57;100.00
26087;BME280;13851;43.434;28.338;2023-05-03T00:28:45;100640.50;;;12.29;100.00
26087;BME280;13851;43.434;28.338;2023-05-03T00:31:11;100349.25;;;10.71;100.00
26087;BME280;13851;43.434;28.338;2023-05-03T00:33:36;100709.47;;;12.59;100.00
26087;BME280;13851;43.434;28.338;2023-05-03T00:38:34;100583.19;;;12.02;100.00
26087;BME280;13851;43.434;28.338;2023-05-03T00:40:59;100648.72;;;12.45;100.00
26087;BME280;13851;43.434;28.338;2023-05-03T00:43:26;100662.06;;;12.57;100.00
26087;BME280;13851;43.434;28.338;2023-05-03T00:45:51;100666.56;;;12.33;100.00
26087;BME280;13851;43.434;28.338;2023-05-03T00:48:17;100671.03;;;12.51;100.00
26087;BME280;13851;43.434;28.338;2023-05-03T00:50:44;100660.75;;;12.20;100.00
26087;BME280;13851;43.434;28.338;2023-05-03T00:53:11;100705.06;;;12.09;100.00
26087;BME280;13851;43.434;28.338;2023-05-03T00:55:36;100546.47;;;11.45;100.00
26087;BME280;13851;43.434;28.338;2023-05-03T00:58:02;100662.13;;;12.16;100.00
26087;BME280;13851;43.434;28.338;2023-05-03T01:00:28;100325.00;;;10.17;100.00
26087;BME280;13851;43.434;28.338;2023-05-03T01:02:53;100652.53;;;12.12;100.00
26087;BME280;13851;43.434;28.338;2023-05-03T01:05:20;100634.31;;;12.03;100.00
26087;BME280;13851;43.434;28.338;2023-05-03T01:08:12;100618.41;;;11.98;100.00
26087;BME280;13851;43.434;28.338;2023-05-03T01:11:36;100655.59;;;12.25;100.00
26087;BME280;13851;43.434;28.338;2023-05-03T01:16:34;100697.69;;;12.09;100.00
26087;BME280;13851;43.434;28.338;2023-05-03T01:19:06;100618.91;;;11.85;100.00
26087;BME280;13851;43.434;28.338;2023-05-03T01:21:41;100661.28;;;12.07;100.00
26087;BME280;13851;43.434;28.338;2023-05-03T01:24:17;100645.31;;;12.03;100.00
26087;BME280;13851;43.434;28.338;2023-05-03T01:26:46;100677.44;;;11.94;100.00
26087;BME280;13851;43.434;28.338;2023-05-03T01:29:11;100654.78;;;12.00;100.00
26087;BME280;13851;43.434;28.338;2023-05-03T01:31:52;100585.91;;;11.61;100.00
26087;BME280;13851;43.434;28.338;2023-05-03T01:34:53;100660.94;;;11.94;100.00
26087;BME280;13851;43.434;28.338;2023-05-03T01:37:19;100635.47;;;11.51;100.00
26087;BME280;13851;43.434;28.338;2023-05-03T01:42:14;100677.03;;;11.81;100.00
26087;BME280;13851;43.434;28.338;2023-05-03T01:44:41;100650.78;;;11.78;100.00
26087;BME280;13851;43.434;28.338;2023-05-03T01:47:08;100640.66;;;11.70;100.00
26087;BME280;13851;43.434;28.338;2023-05-03T01:49:33;100660.75;;;11.79;100.00
26087;BME280;13851;43.434;28.338;2023-05-03T01:51:59;100631.84;;;11.34;100.00
26087;BME280;13851;43.434;28.338;2023-05-03T01:54:25;100643.38;;;11.54;100.00
26087;BME280;13851;43.434;28.338;2023-05-03T01:56:50;100319.72;;;9.65;100.00
26087;BME280;13851;43.434;28.338;2023-05-03T01:59:16;100630.97;;;11.26;100.00
26087;BME280;13851;43.434;28.338;2023-05-03T02:01:41;100657.97;;;11.55;100.00
26087;BME280;13851;43.434;28.338;2023-05-03T02:04:07;100645.78;;;11.49;100.00
26087;BME280;13851;43.434;28.338;2023-05-03T02:06:32;100369.38;;;9.78;100.00
26087;BME280;13851;43.434;28.338;2023-05-03T02:08:58;100650.88;;;11.36;100.00
26087;BME280;13851;43.434;28.338;2023-05-03T02:11:24;100581.84;;;10.82;100.00
26087;BME280;13851;43.434;28.338;2023-05-03T02:13:50;100386.34;;;9.56;100.00
26087;BME280;13851;43.434;28.338;2023-05-03T02:16:16;100645.25;;;10.87;100.00
26087;BME280;13851;43.434;28.338;2023-05-03T02:18:42;100630.06;;;11.01;100.00
26087;BME280;13851;43.434;28.338;2023-05-03T02:21:09;100330.78;;;9.21;100.00
26087;BME280;13851;43.434;28.338;2023-05-03T02:23:36;100293.41;;;8.96;100.00
26087;BME280;13851;43.434;28.338;2023-05-03T02:26:01;100704.53;;;11.22;100.00
26087;BME280;13851;43.434;28.338;2023-05-03T02:28:27;100659.44;;;11.25;100.00
26087;BME280;13851;43.434;28.338;2023-05-03T02:30:52;100627.25;;;10.84;100.00
26087;BME280;13851;43.434;28.338;2023-05-03T02:33:18;100430.13;;;9.90;100.00
26087;BME280;13851;43.434;28.338;2023-05-03T02:35:43;100545.09;;;10.58;100.00
26087;BME280;13851;43.434;28.338;2023-05-03T02:38:09;100658.72;;;11.14;100.00
26087;BME280;13851;43.434;28.338;2023-05-03T02:40:34;100664.72;;;11.18;100.00
26087;BME280;13851;43.434;28.338;2023-05-03T02:43:00;100658.34;;;11.09;100.00
26087;BME280;13851;43.434;28.338;2023-05-03T02:45:26;100658.84;;;11.05;100.00
26087;BME280;13851;43.434;28.338;2023-05-03T02:47:52;100675.03;;;11.16;100.00
26087;BME280;13851;43.434;28.338;2023-05-03T02:50:17;100725.75;;;11.20;100.00
26087;BME280;13851;43.434;28.338;2023-05-03T02:52:43;100652.38;;;11.06;100.00
26087;BME280;13851;43.434;28.338;2023-05-03T02:55:09;100685.47;;;11.20;100.00
26087;BME280;13851;43.434;28.338;2023-05-03T02:57:34;100331.06;;;9.10;100.00
26087;BME280;13851;43.434;28.338;2023-05-03T03:00:00;100670.16;;;11.02;100.00
26087;BME280;13851;43.434;28.338;2023-05-03T03:02:25;100678.13;;;11.21;100.00
26087;BME280;13851;43.434;28.338;2023-05-03T03:04:51;100677.44;;;11.27;100.00
26087;BME280;13851;43.434;28.338;2023-05-03T03:07:16;100645.09;;;10.88;100.00
26087;BME280;13851;43.434;28.338;2023-05-03T03:09:42;100679.69;;;11.40;100.00
26087;BME280;13851;43.434;28.338;2023-05-03T03:12:07;100679.47;;;11.17;100.00
26087;BME280;13851;43.434;28.338;2023-05-03T03:14:33;100695.69;;;11.53;100.00
26087;BME280;13851;43.434;28.338;2023-05-03T03:17:00;100686.94;;;11.49;100.00
26087;BME280;13851;43.434;28.338;2023-05-03T03:19:27;100612.22;;;10.97;100.00
26087;BME280;13851;43.434;28.338;2023-05-03T03:21:53;100690.72;;;11.48;100.00
26087;BME280;13851;43.434;28.338;2023-05-03T03:24:18;100618.47;;;11.23;100.00
26087;BME280;13851;43.434;28.338;2023-05-03T03:26:44;100707.06;;;11.82;100.00
26087;BME280;13851;43.434;28.338;2023-05-03T03:29:09;100729.25;;;12.21;100.00
26087;BME280;13851;43.434;28.338;2023-05-03T03:31:35;100671.22;;;12.33;100.00
26087;BME280;13851;43.434;28.338;2023-05-03T03:34:00;100718.09;;;12.47;100.00
26087;BME280;13851;43.434;28.338;2023-05-03T03:36:26;100335.34;;;10.39;100.00
26087;BME280;13851;43.434;28.338;2023-05-03T03:38:52;100665.53;;;12.51;100.00
26087;BME280;13851;43.434;28.338;2023-05-03T03:41:18;100366.19;;;10.99;100.00
26087;BME280;13851;43.434;28.338;2023-05-03T03:43:45;100703.91;;;12.91;100.00
26087;BME280;13851;43.434;28.338;2023-05-03T03:46:10;100705.38;;;13.26;100.00
26087;BME280;13851;43.434;28.338;2023-05-03T03:48:36;100697.13;;;13.49;100.00
26087;BME280;13851;43.434;28.338;2023-05-03T03:51:01;100396.22;;;11.72;100.00
26087;BME280;13851;43.434;28.338;2023-05-03T03:53:27;100678.19;;;13.55;100.00
26087;BME280;13851;43.434;28.338;2023-05-03T03:55:52;100691.81;;;13.79;100.00
26087;BME280;13851;43.434;28.338;2023-05-03T03:58:18;100524.75;;;13.02;100.00
26087;BME280;13851;43.434;28.338;2023-05-03T04:00:44;100703.75;;;14.32;100.00
26087;BME280;13851;43.434;28.338;2023-05-03T04:03:09;100647.78;;;13.94;100.00
26087;BME280;13851;43.434;28.338;2023-05-03T04:05:35;100666.31;;;14.38;100.00
26087;BME280;13851;43.434;28.338;2023-05-03T04:08:00;100449.44;;;13.04;100.00
26087;BME280;13851;43.434;28.338;2023-05-03T04:10:26;100689.53;;;14.28;100.00
26087;BME280;13851;43.434;28.338;2023-05-03T04:12:51;100689.78;;;14.56;100.00
26087;BME280;13851;43.434;28.338;2023-05-03T04:15:17;100221.66;;;11.63;100.00
26087;BME280;13851;43.434;28.338;2023-05-03T04:17:42;100374.06;;;12.75;100.00
26087;BME280;13851;43.434;28.338;2023-05-03T04:20:08;100359.41;;;12.60;100.00
26087;BME280;13851;43.434;28.338;2023-05-03T04:22:38;100373.69;;;12.55;100.00
26087;BME280;13851;43.434;28.338;2023-05-03T04:25:05;100553.25;;;13.56;100.00
26087;BME280;13851;43.434;28.338;2023-05-03T04:27:32;100429.25;;;12.88;100.00
26087;BME280;13851;43.434;28.338;2023-05-03T04:29:58;100783.03;;;14.53;100.00
26087;BME280;13851;43.434;28.338;2023-05-03T04:32:24;100726.81;;;14.39;100.00
26087;BME280;13851;43.434;28.338;2023-05-03T04:34:50;100741.75;;;14.45;100.00
26087;BME280;13851;43.434;28.338;2023-05-03T04:37:21;100747.41;;;14.43;100.00
26087;BME280;13851;43.434;28.338;2023-05-03T04:39:47;100525.66;;;13.18;100.00
26087;BME280;13851;43.434;28.338;2023-05-03T04:42:12;100685.72;;;14.07;100.00
26087;BME280;13851;43.434;28.338;2023-05-03T04:44:43;100746.75;;;14.49;100.00
26087;BME280;13851;43.434;28.338;2023-05-03T04:47:09;100750.50;;;14.48;100.00
26087;BME280;13851;43.434;28.338;2023-05-03T04:49:35;100232.66;;;11.55;100.00
26087;BME280;13851;43.434;28.338;2023-05-03T04:52:03;100354.88;;;12.44;100.00
26087;BME280;13851;43.434;28.338;2023-05-03T04:54:29;100724.63;;;14.72;100.00
26087;BME280;13851;43.434;28.338;2023-05-03T04:56:55;100507.91;;;13.51;100.00
26087;BME280;13851;43.434;28.338;2023-05-03T04:59:21;100648.50;;;14.48;100.00
26087;BME280;13851;43.434;28.338;2023-05-03T05:01:47;100342.06;;;12.74;100.00
26087;BME280;13851;43.434;28.338;2023-05-03T05:04:12;100673.53;;;14.62;100.00
26087;BME280;13851;43.434;28.338;2023-05-03T05:06:38;100706.91;;;14.67;100.00
26087;BME280;13851;43.434;28.338;2023-05-03T05:09:05;100618.63;;;14.37;100.00
26087;BME280;13851;43.434;28.338;2023-05-03T05:11:32;100719.69;;;14.97;100.00
26087;BME280;13851;43.434;28.338;2023-05-03T05:13:57;100776.88;;;15.03;100.00
26087;BME280;13851;43.434;28.338;2023-05-03T05:16:22;100692.06;;;14.68;100.00
26087;BME280;13851;43.434;28.338;2023-05-03T05:18:48;100536.03;;;13.62;100.00
26087;BME280;13851;43.434;28.338;2023-05-03T05:21:13;100552.59;;;13.91;100.00
26087;BME280;13851;43.434;28.338;2023-05-03T05:23:39;100772.03;;;15.05;100.00
26087;BME280;13851;43.434;28.338;2023-05-03T05:26:04;100771.16;;;15.20;100.00
26087;BME280;13851;43.434;28.338;2023-05-03T05:28:30;100710.00;;;15.16;100.00
26087;BME280;13851;43.434;28.338;2023-05-03T05:30:57;100767.84;;;15.39;100.00
26087;BME280;13851;43.434;28.338;2023-05-03T05:33:22;100477.50;;;13.97;100.00
26087;BME280;13851;43.434;28.338;2023-05-03T05:35:48;100689.13;;;15.28;100.00
26087;BME280;13851;43.434;28.338;2023-05-03T05:38:15;100651.47;;;14.91;100.00
26087;BME280;13851;43.434;28.338;2023-05-03T05:40:41;100732.16;;;15.38;100.00
26087;BME280;13851;43.434;28.338;2023-05-03T05:43:07;100741.28;;;15.23;100.00
26087;BME280;13851;43.434;28.338;2023-05-03T05:45:33;100483.53;;;13.63;100.00
26087;BME280;13851;43.434;28.338;2023-05-03T05:47:59;100719.22;;;15.23;100.00
26087;BME280;13851;43.434;28.338;2023-05-03T05:50:25;100692.09;;;15.12;100.00
26087;BME280;13851;43.434;28.338;2023-05-03T05:52:50;100716.56;;;14.86;100.00
26087;BME280;13851;43.434;28.338;2023-05-03T05:55:17;100554.09;;;13.41;100.00
26087;BME280;13851;43.434;28.338;2023-05-03T05:57:42;100742.09;;;14.42;100.00
26087;BME280;13851;43.434;28.338;2023-05-03T06:00:08;100443.28;;;12.47;100.00
26087;BME280;13851;43.434;28.338;2023-05-03T06:02:42;100723.16;;;14.24;100.00
26087;BME280;13851;43.434;28.338;2023-05-03T06:05:09;100779.53;;;14.36;100.00
26087;BME280;13851;43.434;28.338;2023-05-03T06:07:35;100772.69;;;14.32;100.00
26087;BME280;13851;43.434;28.338;2023-05-03T06:10:01;100782.06;;;14.46;100.00
26087;BME280;13851;43.434;28.338;2023-05-03T06:12:28;100773.97;;;14.44;100.00
26087;BME280;13851;43.434;28.338;2023-05-03T06:14:54;100352.72;;;12.00;100.00
26087;BME280;13851;43.434;28.338;2023-05-03T06:17:19;100766.84;;;14.73;100.00
26087;BME280;13851;43.434;28.338;2023-05-03T06:19:47;100540.31;;;13.41;100.00
26087;BME280;13851;43.434;28.338;2023-05-03T06:22:14;100717.59;;;14.70;100.00
26087;BME280;13851;43.434;28.338;2023-05-03T06:24:40;100741.34;;;14.71;100.00
26087;BME280;13851;43.434;28.338;2023-05-03T06:27:05;100768.78;;;14.87;100.00
26087;BME280;13851;43.434;28.338;2023-05-03T06:29:31;100745.34;;;14.68;100.00
26087;BME280;13851;43.434;28.338;2023-05-03T06:31:56;100816.72;;;14.86;100.00
26087;BME280;13851;43.434;28.338;2023-05-03T06:34:22;100778.97;;;14.87;100.00
26087;BME280;13851;43.434;28.338;2023-05-03T06:36:48;100783.34;;;14.96;100.00
26087;BME280;13851;43.434;28.338;2023-05-03T06:39:15;100770.69;;;14.87;100.00
26087;BME280;13851;43.434;28.338;2023-05-03T06:41:41;100766.88;;;15.02;100.00
26087;BME280;13851;43.434;28.338;2023-05-03T06:44:06;100421.41;;;12.85;100.00
26087;BME280;13851;43.434;28.338;2023-05-03T06:46:32;100783.91;;;14.53;100.00
26087;BME280;13851;43.434;28.338;2023-05-03T06:48:57;100782.13;;;14.61;100.00
26087;BME280;13851;43.434;28.338;2023-05-03T06:51:24;100798.28;;;15.01;100.00
26087;BME280;13851;43.434;28.338;2023-05-03T06:53:59;100778.28;;;14.99;100.00
26087;BME280;13851;43.434;28.338;2023-05-03T06:56:31;100797.03;;;15.04;100.00
26087;BME280;13851;43.434;28.338;2023-05-03T06:58:57;100777.47;;;14.61;100.00
26087;BME280;13851;43.434;28.338;2023-05-03T07:01:22;100801.97;;;14.94;100.00
26087;BME280;13851;43.434;28.338;2023-05-03T07:03:48;100789.72;;;14.96;100.00
26087;BME280;13851;43.434;28.338;2023-05-03T07:06:13;100719.25;;;14.56;100.00
26087;BME280;13851;43.434;28.338;2023-05-03T07:08:39;100763.03;;;14.74;100.00
26087;BME280;13851;43.434;28.338;2023-05-03T07:11:05;100791.00;;;14.71;100.00
26087;BME280;13851;43.434;28.338;2023-05-03T07:13:30;100737.25;;;14.67;100.00
26087;BME280;13851;43.434;28.338;2023-05-03T07:15:56;100791.53;;;15.04;100.00
26087;BME280;13851;43.434;28.338;2023-05-03T07:18:22;100377.59;;;12.61;100.00
26087;BME280;13851;43.434;28.338;2023-05-03T07:20:47;100794.59;;;15.24;100.00
26087;BME280;13851;43.434;28.338;2023-05-03T07:23:13;100782.97;;;15.28;100.00
26087;BME280;13851;43.434;28.338;2023-05-03T07:25:41;100787.00;;;15.26;100.00
26087;BME280;13851;43.434;28.338;2023-05-03T07:28:06;100822.59;;;15.21;100.00
26087;BME280;13851;43.434;28.338;2023-05-03T07:30:32;100780.41;;;15.27;100.00
26087;BME280;13851;43.434;28.338;2023-05-03T07:32:58;100440.53;;;13.01;100.00
26087;BME280;13851;43.434;28.338;2023-05-03T07:35:23;100709.03;;;14.65;100.00
26087;BME280;13851;43.434;28.338;2023-05-03T07:37:50;100793.47;;;15.33;100.00
26087;BME280;13851;43.434;28.338;2023-05-03T07:40:16;100790.22;;;15.44;100.00
26087;BME280;13851;43.434;28.338;2023-05-03T07:42:42;100788.00;;;15.84;100.00
26087;BME280;13851;43.434;28.338;2023-05-03T07:45:08;100772.28;;;15.84;100.00
26087;BME280;13851;43.434;28.338;2023-05-03T07:47:33;100760.81;;;15.51;100.00
26087;BME280;13851;43.434;28.338;2023-05-03T07:50:02;100808.22;;;15.70;100.00
26087;BME280;13851;43.434;28.338;2023-05-03T07:52:37;100768.47;;;14.82;100.00
26087;BME280;13851;43.434;28.338;2023-05-03T07:55:02;100790.03;;;15.46;100.00
26087;BME280;13851;43.434;28.338;2023-05-03T07:57:28;100773.94;;;15.49;100.00
26087;BME280;13851;43.434;28.338;2023-05-03T07:59:54;100808.00;;;15.86;100.00
26087;BME280;13851;43.434;28.338;2023-05-03T08:02:20;100522.59;;;13.96;100.00
26087;BME280;13851;43.434;28.338;2023-05-03T08:04:46;100854.88;;;15.94;100.00
26087;BME280;13851;43.434;28.338;2023-05-03T08:07:11;100670.78;;;15.21;100.00
26087;BME280;13851;43.434;28.338;2023-05-03T08:09:37;100766.00;;;15.76;100.00
26087;BME280;13851;43.434;28.338;2023-05-03T08:12:03;100369.38;;;12.98;100.00
26087;BME280;13851;43.434;28.338;2023-05-03T08:14:28;100752.69;;;15.35;100.00
26087;BME280;13851;43.434;28.338;2023-05-03T08:16:54;100628.75;;;14.60;100.00
26087;BME280;13851;43.434;28.338;2023-05-03T08:19:19;100805.19;;;15.65;100.00
26087;BME280;13851;43.434;28.338;2023-05-03T08:21:45;100815.25;;;15.43;100.00
26087;BME280;13851;43.434;28.338;2023-05-03T08:24:13;100878.50;;;15.52;100.00
26087;BME280;13851;43.434;28.338;2023-05-03T08:26:39;100772.63;;;15.30;100.00
26087;BME280;13851;43.434;28.338;2023-05-03T08:29:06;100753.16;;;15.83;100.00
26087;BME280;13851;43.434;28.338;2023-05-03T08:31:32;100828.41;;;16.21;100.00
26087;BME280;13851;43.434;28.338;2023-05-03T08:33:58;100861.63;;;16.06;100.00
26087;BME280;13851;43.434;28.338;2023-05-03T08:36:25;100822.72;;;16.23;100.00
26087;BME280;13851;43.434;28.338;2023-05-03T08:38:51;100829.34;;;16.28;100.00
26087;BME280;13851;43.434;28.338;2023-05-03T08:41:27;100828.31;;;16.51;100.00
26087;BME280;13851;43.434;28.338;2023-05-03T08:43:54;100835.00;;;16.63;100.00
26087;BME280;13851;43.434;28.338;2023-05-03T08:46:21;100854.84;;;16.67;100.00
26087;BME280;13851;43.434;28.338;2023-05-03T08:48:48;100793.47;;;16.14;100.00
26087;BME280;13851;43.434;28.338;2023-05-03T08:51:15;100831.19;;;16.43;100.00
26087;BME280;13851;43.434;28.338;2023-05-03T08:53:41;100855.13;;;16.50;100.00
26087;BME280;13851;43.434;28.338;2023-05-03T08:56:11;100854.63;;;16.68;100.00
26087;BME280;13851;43.434;28.338;2023-05-03T08:58:38;100864.91;;;16.89;100.00
26087;BME280;13851;43.434;28.338;2023-05-03T09:01:04;100908.06;;;17.05;100.00
26087;BME280;13851;43.434;28.338;2023-05-03T09:03:31;100815.47;;;16.86;100.00
26087;BME280;13851;43.434;28.338;2023-05-03T09:05:56;100867.94;;;16.94;100.00
26087;BME280;13851;43.434;28.338;2023-05-03T09:08:26;100842.06;;;17.08;100.00
26087;BME280;13851;43.434;28.338;2023-05-03T09:10:52;100832.03;;;16.79;100.00
26087;BME280;13851;43.434;28.338;2023-05-03T09:13:18;100828.44;;;16.64;100.00
26087;BME280;13851;43.434;28.338;2023-05-03T09:15:55;100832.63;;;16.75;100.00
26087;BME280;13851;43.434;28.338;2023-05-03T09:18:21;100643.22;;;15.42;100.00
26087;BME280;13851;43.434;28.338;2023-05-03T09:20:48;100911.34;;;16.57;100.00
26087;BME280;13851;43.434;28.338;2023-05-03T09:23:18;100603.81;;;14.97;100.00
26087;BME280;13851;43.434;28.338;2023-05-03T09:25:56;100626.06;;;15.11;100.00
26087;BME280;13851;43.434;28.338;2023-05-03T09:28:25;100543.44;;;14.58;100.00
26087;BME280;13851;43.434;28.338;2023-05-03T09:31:04;100827.78;;;16.04;100.00
26087;BME280;13851;43.434;28.338;2023-05-03T09:33:31;100873.53;;;16.07;100.00
26087;BME280;13851;43.434;28.338;2023-05-03T09:36:01;100834.88;;;15.92;100.00
26087;BME280;13851;43.434;28.338;2023-05-03T09:38:32;100727.41;;;15.31;100.00
26087;BME280;13851;43.434;28.338;2023-05-03T09:41:02;100906.13;;;16.11;100.00
26087;BME280;13851;43.434;28.338;2023-05-03T09:43:30;100840.75;;;16.04;100.00
26087;BME280;13851;43.434;28.338;2023-05-03T09:46:12;100525.75;;;14.38;100.00
26087;BME280;13851;43.434;28.338;2023-05-03T09:48:38;100827.78;;;16.41;100.00
26087;BME280;13851;43.434;28.338;2023-05-03T09:51:05;100835.09;;;16.70;100.00
26087;BME280;13851;43.434;28.338;2023-05-03T09:53:32;100816.91;;;16.60;100.00
26087;BME280;13851;43.434;28.338;2023-05-03T09:56:02;100836.44;;;16.95;100.00
26087;BME280;13851;43.434;28.338;2023-05-03T09:58:28;100830.03;;;16.95;100.00
26087;BME280;13851;43.434;28.338;2023-05-03T10:00:55;100823.81;;;16.93;100.00
26087;BME280;13851;43.434;28.338;2023-05-03T10:03:33;100728.97;;;16.28;100.00
26087;BME280;13851;43.434;28.338;2023-05-03T10:06:01;100526.03;;;15.30;100.00
26087;BME280;13851;43.434;28.338;2023-05-03T10:08:41;100504.44;;;15.12;100.00
26087;BME280;13851;43.434;28.338;2023-05-03T10:11:12;100838.50;;;16.93;100.00
26087;BME280;13851;43.434;28.338;2023-05-03T10:13:39;100579.41;;;15.16;100.00
26087;BME280;13851;43.434;28.338;2023-05-03T10:16:07;100784.63;;;16.46;100.00
26087;BME280;13851;43.434;28.338;2023-05-03T10:18:48;100576.47;;;15.17;100.00
26087;BME280;13851;43.434;28.338;2023-05-03T10:24:12;100822.03;;;17.06;100.00
26087;BME280;13851;43.434;28.338;2023-05-03T10:26:45;100815.69;;;17.12;100.00
26087;BME280;13851;43.434;28.338;2023-05-03T10:32:04;100828.56;;;17.27;100.00
26087;BME280;13851;43.434;28.338;2023-05-03T10:34:32;100832.53;;;17.18;100.00
26087;BME280;13851;43.434;28.338;2023-05-03T10:37:04;100829.03;;;17.02;100.00
26087;BME280;13851;43.434;28.338;2023-05-03T10:39:32;100829.38;;;17.21;100.00
26087;BME280;13851;43.434;28.338;2023-05-03T10:42:02;100832.03;;;17.07;100.00
26087;BME280;13851;43.434;28.338;2023-05-03T10:44:34;100765.75;;;16.99;100.00
26087;BME280;13851;43.434;28.338;2023-05-03T10:47:37;100811.03;;;17.20;100.00
26087;BME280;13851;43.434;28.338;2023-05-03T10:55:14;100816.72;;;16.83;100.00
26087;BME280;13851;43.434;28.338;2023-05-03T10:57:42;100828.50;;;16.92;100.00
26087;BME280;13851;43.434;28.338;2023-05-03T11:00:22;100778.81;;;16.62;100.00
26087;BME280;13851;43.434;28.338;2023-05-03T11:05:54;100762.19;;;17.05;100.00
26087;BME280;13851;43.434;28.338;2023-05-03T11:08:22;100802.81;;;17.67;100.00
26087;BME280;13851;43.434;28.338;2023-05-03T11:10:57;100796.31;;;17.47;100.00
26087;BME280;13851;43.434;28.338;2023-05-03T11:13:23;100801.47;;;17.57;100.00
26087;BME280;13851;43.434;28.338;2023-05-03T11:15:49;100802.78;;;17.61;100.00
26087;BME280;13851;43.434;28.338;2023-05-03T11:18:14;100761.00;;;17.62;100.00
26087;BME280;13851;43.434;28.338;2023-05-03T11:20:40;100791.84;;;17.87;100.00
26087;BME280;13851;43.434;28.338;2023-05-03T11:23:06;100446.72;;;15.88;100.00
26087;BME280;13851;43.434;28.338;2023-05-03T11:25:32;100767.84;;;17.66;99.33
26087;BME280;13851;43.434;28.338;2023-05-03T11:28:01;100781.69;;;18.14;99.98
26087;BME280;13851;43.434;28.338;2023-05-03T11:30:28;100772.81;;;18.65;92.06
26087;BME280;13851;43.434;28.338;2023-05-03T11:32:54;100764.50;;;18.92;91.05
26087;BME280;13851;43.434;28.338;2023-05-03T11:35:20;100772.34;;;18.29;89.18
26087;BME280;13851;43.434;28.338;2023-05-03T11:37:50;100362.94;;;15.25;92.36
26087;BME280;13851;43.434;28.338;2023-05-03T11:40:15;100757.75;;;17.87;100.00
26087;BME280;13851;43.434;28.338;2023-05-03T11:42:59;100683.41;;;17.56;97.79
26087;BME280;13851;43.434;28.338;2023-05-03T11:45:28;100761.75;;;17.78;96.79
26087;BME280;13851;43.434;28.338;2023-05-03T11:47:56;100576.47;;;16.66;98.17
26087;BME280;13851;43.434;28.338;2023-05-03T11:50:47;100767.47;;;18.44;95.33
26087;BME280;13851;43.434;28.338;2023-05-03T11:53:16;100739.69;;;18.24;95.23
26087;BME280;13851;43.434;28.338;2023-05-03T11:55:45;100754.91;;;17.80;98.50
26087;BME280;13851;43.434;28.338;2023-05-03T12:00:38;100429.31;;;15.94;100.00
26087;BME280;13851;43.434;28.338;2023-05-03T12:03:05;100758.59;;;18.01;100.00
26087;BME280;13851;43.434;28.338;2023-05-03T12:05:32;100793.03;;;17.72;100.00
26087;BME280;13851;43.434;28.338;2023-05-03T12:07:58;100741.16;;;17.18;100.00
26087;BME280;13851;43.434;28.338;2023-05-03T12:10:30;100711.16;;;16.58;100.00
26087;BME280;13851;43.434;28.338;2023-05-03T12:12:57;100753.41;;;16.52;100.00
26087;BME280;13851;43.434;28.338;2023-05-03T12:18:02;100799.41;;;16.75;100.00
26087;BME280;13851;43.434;28.338;2023-05-03T12:20:29;100753.06;;;16.83;100.00
26087;BME280;13851;43.434;28.338;2023-05-03T12:23:02;100761.91;;;16.51;100.00
26087;BME280;13851;43.434;28.338;2023-05-03T12:25:28;100766.19;;;16.32;100.00
26087;BME280;13851;43.434;28.338;2023-05-03T12:27:57;100421.22;;;14.51;100.00
26087;BME280;13851;43.434;28.338;2023-05-03T12:30:23;100757.38;;;16.64;100.00
26087;BME280;13851;43.434;28.338;2023-05-03T12:32:49;100511.72;;;15.20;100.00
26087;BME280;13851;43.434;28.338;2023-05-03T12:35:14;100698.59;;;16.62;100.00
26087;BME280;13851;43.434;28.338;2023-05-03T12:37:40;100802.78;;;16.98;100.00
26087;BME280;13851;43.434;28.338;2023-05-03T12:40:06;100740.75;;;16.86;100.00
26087;BME280;13851;43.434;28.338;2023-05-03T12:42:32;100696.06;;;16.89;100.00
26087;BME280;13851;43.434;28.338;2023-05-03T12:44:58;100434.44;;;15.41;100.00
26087;BME280;13851;43.434;28.338;2023-05-03T12:47:25;100696.78;;;17.04;100.00
26087;BME280;13851;43.434;28.338;2023-05-03T12:49:52;100649.16;;;17.15;100.00
26087;BME280;13851;43.434;28.338;2023-05-03T12:52:19;100731.09;;;17.92;100.00
26087;BME280;13851;43.434;28.338;2023-05-03T12:54:46;100733.91;;;18.26;100.00
26087;BME280;13851;43.434;28.338;2023-05-03T12:57:11;100465.19;;;16.70;100.00
26087;BME280;13851;43.434;28.338;2023-05-03T12:59:39;100779.59;;;18.30;100.00